Time;durP1;ratioP1;P1;durP2;ratioP2;P2;SDS_P1;SDS_P2;PMS_P1;PMS_P2;Temp;Humidity;BMP_temperature;BMP_pressure;BME280_temperature;BME280_humidity;BME280_pressure;Samples;Min_cycle;Max_cycle;Signal;HPM_P1;HPM_P2
2022/02/21 00:02:03;;;;;;;7.88;4.80;;;;;;;5.00;66.66;96491.91;5094846;28;20466;-66
2022/02/21 00:04:29;;;;;;;8.27;4.90;;;;;;;5.07;67.20;96511.66;5094708;28;20024;-66
2022/02/21 00:06:54;;;;;;;8.20;4.38;;;;;;;5.03;66.94;96510.84;5094658;28;20382;-66
2022/02/21 00:09:20;;;;;;;8.00;4.68;;;;;;;5.04;66.92;96511.72;5094739;28;20024;-66
2022/02/21 00:11:46;;;;;;;9.60;4.68;;;;;;;4.98;66.99;96509.22;5094694;28;20503;-66
2022/02/21 00:14:11;;;;;;;11.57;4.93;;;;;;;4.98;66.85;96520.44;5094791;28;20065;-66
2022/02/21 00:16:37;;;;;;;8.02;4.22;;;;;;;5.04;67.24;96528.13;5094612;28;20020;-66
2022/02/21 00:19:03;;;;;;;9.43;4.60;;;;;;;5.05;67.18;96526.38;5094256;28;20024;-66
2022/02/21 00:21:29;;;;;;;7.55;4.45;;;;;;;5.13;67.09;96526.25;5094506;28;20115;-66
2022/02/21 00:23:55;;;;;;;7.43;4.43;;;;;;;5.14;66.62;96527.97;5094430;28;20020;-66
2022/02/21 00:26:21;;;;;;;7.95;5.20;;;;;;;5.17;66.82;96533.97;5094401;28;20039;-66
2022/02/21 00:28:47;;;;;;;6.68;4.68;;;;;;;5.21;66.80;96524.38;5094364;28;20028;-66
2022/02/21 00:31:13;;;;;;;9.93;4.60;;;;;;;5.24;66.72;96518.31;5094187;28;20447;-66
2022/02/21 00:33:39;;;;;;;7.18;4.47;;;;;;;5.24;67.24;96507.94;5094350;28;20016;-66
2022/02/21 00:36:05;;;;;;;5.55;3.80;;;;;;;5.29;67.03;96511.28;5094087;28;20482;-65
2022/02/21 00:38:31;;;;;;;8.32;4.07;;;;;;;5.30;66.78;96507.84;5094141;28;20046;-65
2022/02/21 00:40:56;;;;;;;9.75;4.22;;;;;;;5.33;66.63;96491.34;5093999;28;20032;-65
2022/02/21 00:43:23;;;;;;;6.30;4.20;;;;;;;5.34;66.84;96491.31;5094110;28;20099;-65
2022/02/21 00:45:48;;;;;;;8.20;5.15;;;;;;;5.26;66.77;96486.25;5093878;28;20023;-65
2022/02/21 00:48:14;;;;;;;8.82;4.47;;;;;;;5.22;67.12;96489.81;5093960;28;20028;-65
2022/02/21 00:50:39;;;;;;;10.80;4.85;;;;;;;5.23;66.80;96490.63;5093814;28;20039;-65
2022/02/21 00:53:05;;;;;;;9.35;4.10;;;;;;;5.18;66.97;96488.16;5093909;28;20051;-65
2022/02/21 00:55:33;;;;;;;9.63;4.47;;;;;;;5.13;66.99;96480.44;5093795;28;20073;-65
2022/02/21 00:57:59;;;;;;;8.05;4.05;;;;;;;5.09;66.69;96476.16;5093764;28;20109;-65
2022/02/21 01:00:25;;;;;;;17.65;4.60;;;;;;;5.07;66.65;96470.19;5093799;28;20106;-65
2022/02/21 01:02:50;;;;;;;7.10;4.68;;;;;;;4.98;66.07;96463.41;5093684;28;20017;-65
2022/02/21 01:05:16;;;;;;;10.25;4.75;;;;;;;4.90;67.16;96458.34;5093650;28;20470;-64
2022/02/21 01:07:41;;;;;;;7.50;4.63;;;;;;;4.78;67.45;96461.13;5093648;28;20065;-65
2022/02/21 01:10:07;;;;;;;10.73;4.60;;;;;;;4.59;67.15;96460.56;5093624;28;20020;-64
2022/02/21 01:12:33;;;;;;;14.55;9.77;;;;;;;4.50;67.68;96464.16;5075288;28;20032;-65
2022/02/21 01:14:58;;;;;;;12.43;8.40;;;;;;;4.47;67.49;96446.94;5093550;28;20024;-65
2022/02/21 01:17:26;;;;;;;12.93;8.32;;;;;;;4.28;68.40;96449.78;5093504;28;20020;-65
2022/02/21 01:19:51;;;;;;;14.43;8.50;;;;;;;4.24;69.41;96448.13;5093244;28;20036;-65
2022/02/21 01:22:17;;;;;;;8.55;4.35;;;;;;;4.30;68.04;96452.34;5093496;28;20027;-66
2022/02/21 01:24:43;;;;;;;10.10;5.45;;;;;;;4.26;68.29;96453.28;5093407;28;20020;-66
2022/02/21 01:27:09;;;;;;;11.23;5.20;;;;;;;4.24;68.45;96449.88;5093448;28;20061;-66
2022/02/21 01:29:35;;;;;;;14.20;5.75;;;;;;;4.16;68.48;96447.38;5093354;28;20086;-66
2022/02/21 01:32:01;;;;;;;18.38;5.20;;;;;;;4.16;68.85;96443.03;5093142;28;20413;-65
2022/02/21 01:34:26;;;;;;;10.15;5.78;;;;;;;4.22;68.63;96444.72;5093321;28;20478;-66
2022/02/21 01:36:52;;;;;;;10.05;4.47;;;;;;;4.20;68.67;96440.41;5093187;28;20343;-65
2022/02/21 01:39:19;;;;;;;10.85;4.93;;;;;;;4.21;68.74;96439.56;5093410;28;20028;-65
2022/02/21 01:41:45;;;;;;;8.23;5.32;;;;;;;4.26;68.88;96433.44;5093143;28;20027;-66
2022/02/21 01:44:12;;;;;;;13.13;4.78;;;;;;;4.28;68.85;96443.75;5093186;28;20024;-65
2022/02/21 01:46:39;;;;;;;7.05;4.50;;;;;;;4.28;68.63;96441.19;5092480;28;20095;-66
2022/02/21 01:49:06;;;;;;;9.05;4.70;;;;;;;4.27;68.52;96440.31;5093195;28;20156;-66
2022/02/21 01:51:33;;;;;;;7.78;4.60;;;;;;;4.21;69.48;96445.56;5092923;28;20051;-65
2022/02/21 01:54:00;;;;;;;9.60;5.32;;;;;;;4.29;69.77;96442.88;5092990;28;20016;-65
2022/02/21 01:56:26;;;;;;;8.70;4.30;;;;;;;4.38;70.01;96442.75;5093007;28;20028;-66
2022/02/21 01:58:52;;;;;;;9.02;4.75;;;;;;;4.47;69.68;96440.88;5093003;28;20020;-66
2022/02/21 02:01:18;;;;;;;12.18;4.45;;;;;;;4.54;69.79;96445.97;5093017;28;20032;-65
2022/02/21 02:03:44;;;;;;;7.82;4.60;;;;;;;4.61;69.25;96438.94;5093094;28;20024;-66
2022/02/21 02:06:10;;;;;;;7.13;4.20;;;;;;;4.65;69.01;96439.75;5092844;28;20489;-66
2022/02/21 02:08:36;;;;;;;8.07;4.88;;;;;;;4.61;69.16;96436.34;5093050;28;20027;-66
2022/02/21 02:11:02;;;;;;;7.28;5.03;;;;;;;4.59;69.86;96429.47;5092939;28;20032;-66
2022/02/21 02:13:28;;;;;;;12.23;5.25;;;;;;;4.60;69.98;96426.88;5092889;28;20100;-66
2022/02/21 02:15:54;;;;;;;8.98;4.25;;;;;;;4.62;69.95;96426.84;5092784;28;20504;-66
2022/02/21 02:18:23;;;;;;;8.02;4.63;;;;;;;4.65;70.01;96422.47;5092801;28;20023;-65
2022/02/21 02:20:49;;;;;;;8.70;4.82;;;;;;;4.73;69.68;96419.72;5092648;28;20447;-66
2022/02/21 02:23:15;;;;;;;6.35;4.88;;;;;;;4.71;70.02;96418.91;5092739;28;20024;-66
2022/02/21 02:25:41;;;;;;;11.38;4.88;;;;;;;4.79;69.88;96419.63;5092678;28;20046;-66
2022/02/21 02:28:07;;;;;;;9.27;4.55;;;;;;;4.84;69.91;96411.78;5092636;28;20067;-66
2022/02/21 02:30:33;;;;;;;6.28;4.32;;;;;;;4.84;69.55;96418.72;5092539;28;20016;-65
2022/02/21 02:32:59;;;;;;;6.90;4.50;;;;;;;4.89;68.96;96420.34;5092650;28;20039;-66
2022/02/21 02:35:27;;;;;;;6.15;4.70;;;;;;;4.84;69.30;96416.97;5092821;28;20031;-65
2022/02/21 02:37:54;;;;;;;10.48;5.05;;;;;;;4.81;69.50;96422.19;5092822;28;20093;-65
2022/02/21 02:40:20;;;;;;;9.00;4.95;;;;;;;4.78;69.20;96414.47;5092644;28;20110;-66
2022/02/21 02:42:45;;;;;;;6.88;4.45;;;;;;;4.80;68.91;96420.50;5092598;28;20424;-66
2022/02/21 02:45:12;;;;;;;7.15;4.43;;;;;;;4.79;68.93;96419.63;5092497;28;20020;-66
2022/02/21 02:47:37;;;;;;;6.78;4.60;;;;;;;4.77;68.83;96410.19;5092525;28;20095;-66
2022/02/21 02:50:05;;;;;;;6.60;4.63;;;;;;;4.75;69.03;96411.94;5092575;28;20063;-66
2022/02/21 02:52:30;;;;;;;7.28;4.72;;;;;;;4.74;69.05;96413.69;5092355;28;20024;-66
2022/02/21 02:54:56;;;;;;;7.57;4.50;;;;;;;4.74;69.24;96415.41;5092485;28;20359;-65
2022/02/21 02:57:22;;;;;;;7.97;4.97;;;;;;;4.74;69.43;96411.09;5092564;28;20020;-65
2022/02/21 02:59:47;;;;;;;8.80;4.95;;;;;;;4.69;69.40;96410.31;5095086;28;20027;-66
2022/02/21 03:02:13;;;;;;;7.55;5.07;;;;;;;4.66;69.43;96407.75;5095973;28;20024;-66
2022/02/21 03:04:38;;;;;;;8.35;4.80;;;;;;;4.63;69.26;96407.81;5095911;28;20099;-65
2022/02/21 03:07:04;;;;;;;6.65;4.47;;;;;;;4.65;69.73;96406.06;5095870;28;20093;-65
2022/02/21 03:09:30;;;;;;;8.02;5.18;;;;;;;4.66;69.53;96412.94;5095933;28;20062;-66
2022/02/21 03:11:57;;;;;;;10.65;5.05;;;;;;;4.66;69.77;96413.81;5095790;28;20043;-66
2022/02/21 03:14:24;;;;;;;6.60;4.88;;;;;;;4.66;69.77;96419.00;5077764;28;20020;-66
2022/02/21 03:16:50;;;;;;;6.78;4.60;;;;;;;4.66;69.78;96412.94;5095707;28;20024;-66
2022/02/21 03:19:16;;;;;;;7.43;4.28;;;;;;;4.72;69.48;96424.97;5095453;28;20044;-66
2022/02/21 03:21:42;;;;;;;7.65;4.45;;;;;;;4.71;69.36;96415.47;5095660;28;20093;-65
2022/02/21 03:24:07;;;;;;;12.57;4.93;;;;;;;4.75;69.47;96417.97;5077662;28;20183;-66
2022/02/21 03:26:33;;;;;;;11.43;5.18;;;;;;;4.78;69.69;96415.34;5095541;28;20031;-65
2022/02/21 03:28:58;;;;;;;11.30;5.63;;;;;;;4.79;69.52;96411.84;5095595;28;20024;-66
2022/02/21 03:31:24;;;;;;;6.55;4.35;;;;;;;4.83;69.53;96407.50;5095349;28;20078;-66
2022/02/21 03:33:50;;;;;;;7.85;5.03;;;;;;;4.80;69.38;96404.94;5095418;28;20082;-66
2022/02/21 03:36:15;;;;;;;7.05;4.75;;;;;;;4.78;69.19;96407.56;5095503;28;20016;-66
2022/02/21 03:38:43;;;;;;;13.27;5.18;;;;;;;4.83;69.06;96404.03;5095376;28;20424;-66
2022/02/21 03:41:08;;;;;;;10.35;4.63;;;;;;;4.82;69.33;96398.00;5095260;28;20020;-66
2022/02/21 03:43:34;;;;;;;9.80;7.15;;;;;;;4.76;69.45;96391.19;5095163;28;20016;-66
2022/02/21 03:45:59;;;;;;;6.80;4.75;;;;;;;4.70;69.88;96396.50;5095244;28;20020;-66
2022/02/21 03:48:25;;;;;;;8.85;5.07;;;;;;;4.64;69.83;96399.19;5095004;28;20016;-66
2022/02/21 03:50:51;;;;;;;9.18;5.05;;;;;;;4.62;69.91;96394.03;5094973;28;20016;-66
2022/02/21 03:53:16;;;;;;;6.00;4.88;;;;;;;4.55;69.95;96401.03;5094962;28;20032;-66
2022/02/21 03:55:42;;;;;;;9.02;4.70;;;;;;;4.41;70.63;96398.66;5094987;28;20485;-67
2022/02/21 03:58:08;;;;;;;6.32;4.70;;;;;;;4.48;71.05;96402.00;5094974;28;20475;-66
2022/02/21 04:00:33;;;;;;;8.48;4.93;;;;;;;4.51;71.05;96404.53;5094911;28;20070;-66
2022/02/21 04:02:59;;;;;;;11.10;5.50;;;;;;;4.50;71.07;96394.22;5094937;28;20016;-66
2022/02/21 04:05:24;;;;;;;9.18;5.20;;;;;;;4.49;71.04;96389.91;5094912;28;20103;-66
2022/02/21 04:07:50;;;;;;;7.82;5.32;;;;;;;4.53;71.06;96392.44;5094681;28;20047;-66
2022/02/21 04:10:18;;;;;;;9.10;4.55;;;;;;;4.55;70.95;96389.81;5094228;28;20051;-66
2022/02/21 04:12:44;;;;;;;7.97;4.80;;;;;;;4.52;71.25;96392.47;5094566;28;20123;-66
2022/02/21 04:15:11;;;;;;;8.20;4.72;;;;;;;4.55;71.33;96388.06;5094622;28;20028;-66
2022/02/21 04:17:44;;;;;;;11.82;4.63;;;;;;;4.58;70.93;96384.59;5094509;28;20070;-66
2022/02/21 04:20:13;;;;;;;8.10;4.90;;;;;;;4.63;71.14;96380.16;5094290;28;20040;-66
2022/02/21 04:22:39;;;;;;;6.93;4.65;;;;;;;4.68;71.03;96386.16;5094358;28;20032;-65
2022/02/21 04:25:06;;;;;;;7.32;4.40;;;;;;;4.63;71.03;96376.72;5094520;28;20377;-65
2022/02/21 04:27:47;;;;;;;7.45;4.88;;;;;;;4.57;71.61;96380.28;5094478;28;20109;-66
2022/02/21 04:30:14;;;;;;;8.20;5.05;;;;;;;4.58;71.73;96371.63;5094237;28;20028;-65
2022/02/21 04:32:43;;;;;;;6.30;4.32;;;;;;;4.63;71.41;96376.72;5094169;28;20082;-66
2022/02/21 04:35:09;;;;;;;6.90;4.93;;;;;;;4.62;71.53;96380.19;5094121;28;20509;-66
2022/02/21 04:37:36;;;;;;;8.27;4.30;;;;;;;4.63;71.75;96381.91;5094210;28;20550;-65
2022/02/21 04:40:03;;;;;;;7.28;4.80;;;;;;;4.67;71.76;96381.81;5094222;28;20022;-65
2022/02/21 04:42:29;;;;;;;9.82;4.47;;;;;;;4.67;71.55;96378.41;5094047;28;20024;-66
2022/02/21 04:44:54;;;;;;;7.80;4.90;;;;;;;4.59;71.53;96378.53;5094035;28;20024;-66
2022/02/21 04:47:20;;;;;;;7.68;4.90;;;;;;;4.57;71.80;96384.63;5093866;28;20377;-66
2022/02/21 04:49:46;;;;;;;10.00;4.68;;;;;;;4.58;71.68;96374.22;5093992;28;20034;-66
2022/02/21 04:52:11;;;;;;;5.97;4.22;;;;;;;4.62;71.78;96368.09;5093845;28;20363;-66
2022/02/21 04:54:37;;;;;;;9.65;4.93;;;;;;;4.66;71.43;96364.56;5093945;28;20028;-66
2022/02/21 04:57:02;;;;;;;6.78;4.57;;;;;;;4.60;71.38;96361.25;5093879;28;20027;-65
2022/02/21 04:59:28;;;;;;;7.07;4.13;;;;;;;4.59;71.55;96368.16;5093858;28;20028;-65
2022/02/21 05:01:54;;;;;;;6.45;4.88;;;;;;;4.59;71.84;96369.88;5093890;28;20077;-65
2022/02/21 05:04:19;;;;;;;6.55;4.28;;;;;;;4.61;71.38;96371.56;5093788;28;20021;-65
2022/02/21 05:06:45;;;;;;;6.95;4.60;;;;;;;4.60;71.01;96366.44;5075668;28;20033;-65
2022/02/21 05:09:10;;;;;;;8.38;5.35;;;;;;;4.58;70.96;96363.88;5093673;28;20377;-65
2022/02/21 05:11:36;;;;;;;9.27;4.57;;;;;;;4.60;71.12;96362.09;5093573;28;20442;-65
2022/02/21 05:14:01;;;;;;;7.32;5.32;;;;;;;4.53;70.81;96361.34;5093648;28;20081;-66
2022/02/21 05:16:27;;;;;;;9.02;5.00;;;;;;;4.50;71.05;96368.31;5093491;28;20021;-66
2022/02/21 05:18:53;;;;;;;9.80;4.70;;;;;;;4.52;70.93;96357.03;5093264;28;20028;-65
2022/02/21 05:21:18;;;;;;;8.32;4.75;;;;;;;4.47;71.08;96365.75;5092732;28;20089;-66
2022/02/21 05:23:44;;;;;;;7.40;5.05;;;;;;;4.42;71.32;96369.28;5093388;28;20020;-66
2022/02/21 05:26:10;;;;;;;6.07;4.60;;;;;;;4.41;71.17;96366.72;5093507;28;20031;-65
2022/02/21 05:28:35;;;;;;;7.38;4.72;;;;;;;4.37;70.85;96371.09;5075292;28;20062;-65
2022/02/21 05:31:01;;;;;;;10.52;4.57;;;;;;;4.37;70.69;96375.44;5093213;28;20477;-66
2022/02/21 05:33:27;;;;;;;7.93;4.78;;;;;;;4.30;70.85;96365.16;5093217;28;20024;-66
2022/02/21 05:35:52;;;;;;;8.98;4.55;;;;;;;4.26;70.81;96368.69;5093270;28;20095;-65
2022/02/21 05:38:18;;;;;;;6.55;4.55;;;;;;;4.26;71.28;96366.09;5093195;28;20024;-65
2022/02/21 05:40:44;;;;;;;10.25;5.18;;;;;;;4.31;71.20;96378.97;5093145;28;20024;-66
2022/02/21 05:43:09;;;;;;;9.80;5.10;;;;;;;4.30;71.01;96391.06;5093276;28;20023;-65
2022/02/21 05:45:35;;;;;;;7.68;4.35;;;;;;;4.33;70.88;96391.91;5093187;28;20086;-66
2022/02/21 05:48:00;;;;;;;7.00;4.65;;;;;;;4.24;70.38;96393.72;5093082;28;20032;-66
2022/02/21 05:50:26;;;;;;;10.35;5.10;;;;;;;4.21;70.25;96393.78;5093264;28;20016;-65
2022/02/21 05:52:52;;;;;;;6.80;4.78;;;;;;;4.11;70.75;96387.03;5093120;28;20032;-66
2022/02/21 05:55:17;;;;;;;7.82;4.72;;;;;;;4.04;70.95;96381.94;5093012;28;20492;-65
2022/02/21 05:57:45;;;;;;;7.20;4.53;;;;;;;4.10;70.83;96386.19;5093086;28;20108;-65
2022/02/21 06:00:12;;;;;;;8.20;4.82;;;;;;;4.07;71.07;96383.66;5093134;28;20016;-65
2022/02/21 06:02:37;;;;;;;8.93;5.05;;;;;;;4.16;70.87;96382.66;5093058;28;20027;-66
2022/02/21 06:05:03;;;;;;;10.68;5.10;;;;;;;4.21;70.31;96377.41;5092991;28;20024;-66
2022/02/21 06:07:29;;;;;;;9.18;5.10;;;;;;;4.29;69.65;96368.63;5092963;28;20039;-66
2022/02/21 06:09:55;;;;;;;6.72;5.05;;;;;;;4.35;69.49;96367.69;5092915;28;20025;-66
2022/02/21 06:12:20;;;;;;;7.05;4.68;;;;;;;4.40;69.03;96365.03;5092885;28;20035;-65
2022/02/21 06:14:46;;;;;;;11.20;4.97;;;;;;;4.64;69.16;96355.13;5092961;28;20043;-66
2022/02/21 06:17:12;;;;;;;13.52;4.82;;;;;;;5.49;67.43;96360.44;5092903;28;20409;-66
2022/02/21 06:19:37;;;;;;;6.07;4.22;;;;;;;7.15;62.33;96352.25;5092646;28;20036;-66
2022/02/21 06:22:03;;;;;;;10.73;3.97;;;;;;;8.83;57.63;96346.34;5092842;28;20020;-66
2022/02/21 06:24:29;;;;;;;7.90;4.80;;;;;;;10.57;52.30;96343.41;5074753;28;20091;-65
2022/02/21 06:26:54;;;;;;;11.55;4.65;;;;;;;12.07;48.29;96342.16;5092714;28;20017;-66
2022/02/21 06:29:20;;;;;;;12.75;4.57;;;;;;;13.34;44.36;96341.25;5092712;28;20055;-65
2022/02/21 06:31:46;;;;;;;7.88;4.15;;;;;;;14.42;41.84;96343.38;5092719;28;20032;-66
2022/02/21 06:34:12;;;;;;;8.88;5.43;;;;;;;15.65;39.49;96336.22;5096252;28;20511;-65
2022/02/21 06:36:37;;;;;;;11.25;4.32;;;;;;;16.87;37.03;96331.19;5096555;28;20119;-65
2022/02/21 06:39:03;;;;;;;10.82;5.15;;;;;;;17.94;34.82;96330.97;5096564;28;20020;-65
2022/02/21 06:41:29;;;;;;;7.20;3.85;;;;;;;18.97;33.51;96331.53;5096423;28;20024;-65
2022/02/21 06:43:55;;;;;;;6.93;4.80;;;;;;;19.79;32.00;96335.03;5096347;28;20031;-65
2022/02/21 06:46:20;;;;;;;8.63;4.45;;;;;;;20.56;30.72;96337.81;5096348;28;20073;-65
2022/02/21 06:48:46;;;;;;;7.15;4.75;;;;;;;21.30;30.03;96338.00;5096429;28;20534;-66
2022/02/21 06:51:11;;;;;;;6.32;4.63;;;;;;;22.02;28.87;96334.56;5096248;28;20058;-65
2022/02/21 06:53:37;;;;;;;12.75;4.78;;;;;;;22.45;28.09;96331.69;5096218;28;20013;-65
2022/02/21 06:56:03;;;;;;;5.85;4.38;;;;;;;23.05;27.23;96333.44;5096160;28;20432;-65
2022/02/21 06:58:28;;;;;;;6.93;4.57;;;;;;;23.52;26.59;96328.31;5096095;28;20063;-66
2022/02/21 07:00:54;;;;;;;6.65;4.45;;;;;;;24.08;26.13;96333.72;5096041;28;20051;-63
2022/02/21 07:03:20;;;;;;;6.65;5.00;;;;;;;24.15;25.46;96329.50;5096088;28;20024;-66
2022/02/21 07:05:46;;;;;;;9.02;5.25;;;;;;;24.63;24.51;96325.81;5096157;28;20020;-66
2022/02/21 07:08:12;;;;;;;10.73;5.97;;;;;;;25.24;23.87;96326.00;5095889;28;20034;-65
2022/02/21 07:10:38;;;;;;;12.63;5.82;;;;;;;25.51;24.10;96321.50;5095659;28;20043;-65
2022/02/21 07:13:04;;;;;;;12.27;4.78;;;;;;;25.27;24.81;96323.03;5095799;28;20028;-64
2022/02/21 07:15:29;;;;;;;10.15;5.50;;;;;;;24.98;24.87;96310.75;5095934;28;20031;-64
2022/02/21 07:17:56;;;;;;;10.35;5.95;;;;;;;24.98;24.25;96314.28;5095776;28;20020;-65
2022/02/21 07:20:22;;;;;;;8.38;5.95;;;;;;;25.11;24.63;96323.75;5095628;28;20123;-65
2022/02/21 07:22:47;;;;;;;10.90;6.15;;;;;;;25.92;23.77;96312.91;5095767;28;20107;-66
2022/02/21 07:25:15;;;;;;;10.10;6.03;;;;;;;26.69;22.40;96315.63;5095693;28;20037;-65
2022/02/21 07:27:52;;;;;;;6.93;5.35;;;;;;;27.27;21.30;96307.59;5095627;28;20059;-64
2022/02/21 07:30:23;;;;;;;9.10;6.10;;;;;;;27.59;21.37;96313.94;5095531;28;20103;-65
2022/02/21 07:32:49;;;;;;;8.80;5.53;;;;;;;27.84;20.83;96305.00;5095398;28;20111;-65
2022/02/21 07:35:15;;;;;;;8.23;5.53;;;;;;;28.28;20.69;96305.44;5095417;28;20027;-65
2022/02/21 07:37:41;;;;;;;11.25;6.00;;;;;;;27.54;21.30;96304.72;5095319;28;20021;-65
2022/02/21 07:40:08;;;;;;;7.93;5.63;;;;;;;27.23;21.02;96304.44;5095319;28;20045;-65
2022/02/21 07:42:34;;;;;;;10.05;5.97;;;;;;;25.15;23.40;96294.84;5095335;28;20138;-65
2022/02/21 07:45:00;;;;;;;12.05;5.95;;;;;;;24.42;24.52;96292.19;5094395;28;20498;-65
2022/02/21 07:47:26;;;;;;;7.88;5.18;;;;;;;23.27;25.63;96293.25;5095105;28;20562;-65
2022/02/21 07:49:52;;;;;;;10.02;5.55;;;;;;;22.58;26.66;96296.84;5095265;28;20031;-65
2022/02/21 07:52:18;;;;;;;8.40;5.35;;;;;;;22.79;26.94;96287.84;5095025;28;20016;-66
2022/02/21 07:54:45;;;;;;;8.77;5.68;;;;;;;20.82;29.54;96289.66;5095153;28;20032;-65
2022/02/21 07:57:16;;;;;;;8.52;6.07;;;;;;;19.72;31.33;96277.28;5094913;28;20024;-64
2022/02/21 07:59:43;;;;;;;12.32;6.78;;;;;;;20.03;31.22;96280.16;5094889;28;20024;-64
2022/02/21 08:02:08;;;;;;;11.35;7.35;;;;;;;20.98;30.11;96271.59;5076768;28;20051;-65
2022/02/21 08:04:34;;;;;;;12.02;7.20;;;;;;;20.92;30.34;96270.31;5094895;28;20059;-63
2022/02/21 08:07:00;;;;;;;12.50;7.13;;;;;;;21.12;30.21;96259.78;5094852;28;20405;-66
2022/02/21 08:09:25;;;;;;;10.90;7.32;;;;;;;20.15;31.81;96257.94;5094844;28;20016;-66
2022/02/21 08:11:51;;;;;;;14.25;7.22;;;;;;;19.49;33.56;96264.88;5094723;28;20050;-66
2022/02/21 08:14:17;;;;;;;13.30;7.78;;;;;;;18.35;35.53;96256.66;5094763;28;20035;-65
2022/02/21 08:16:42;;;;;;;14.48;6.82;;;;;;;17.83;37.85;96257.69;5094716;28;20024;-65
2022/02/21 08:19:10;;;;;;;12.38;7.72;;;;;;;17.63;37.68;96256.47;5094343;28;20016;-64
2022/02/21 08:21:36;;;;;;;13.02;7.57;;;;;;;17.64;37.86;96251.06;5094569;28;20122;-65
2022/02/21 08:24:01;;;;;;;12.30;7.38;;;;;;;17.27;38.76;96251.88;5094328;28;20020;-65
2022/02/21 08:26:29;;;;;;;11.52;6.93;;;;;;;16.56;39.55;96249.59;5094494;28;20059;-65
2022/02/21 08:28:54;;;;;;;14.52;7.07;;;;;;;16.24;40.44;96247.28;5094436;28;20031;-64
2022/02/21 08:31:20;;;;;;;14.75;7.80;;;;;;;15.25;43.51;96242.03;5094308;28;20028;-64
2022/02/21 08:33:45;;;;;;;17.80;8.43;;;;;;;14.48;44.46;96241.25;5094379;28;20056;-63
2022/02/21 08:36:11;;;;;;;16.67;7.60;;;;;;;14.35;44.43;96235.84;5094237;28;20031;-63
2022/02/21 08:38:37;;;;;;;10.57;7.20;;;;;;;14.22;45.10;96234.88;5094127;28;20095;-64
2022/02/21 08:41:02;;;;;;;10.52;7.75;;;;;;;14.10;45.47;96225.91;5094064;28;20020;-66
2022/02/21 08:43:29;;;;;;;13.20;7.80;;;;;;;13.52;47.17;96226.47;5094126;28;20024;-64
2022/02/21 08:45:56;;;;;;;14.02;6.97;;;;;;;13.22;47.90;96232.41;5094035;28;20038;-66
2022/02/21 08:48:22;;;;;;;12.32;7.28;;;;;;;13.16;48.01;96230.13;5094115;28;20020;-64
2022/02/21 08:50:47;;;;;;;16.10;8.07;;;;;;;12.82;49.45;96211.75;5093877;28;20028;-66
2022/02/21 08:53:13;;;;;;;21.70;8.35;;;;;;;12.73;49.93;96215.69;5093960;28;20024;-66
2022/02/21 08:55:38;;;;;;;14.10;7.88;;;;;;;12.68;49.29;96215.94;5093776;28;20027;-64
2022/02/21 08:58:04;;;;;;;16.00;8.52;;;;;;;12.43;50.39;96217.19;5093735;28;20024;-66
2022/02/21 09:00:30;;;;;;;20.92;9.93;;;;;;;12.24;51.10;96210.25;5093824;28;20031;-65
2022/02/21 09:02:57;;;;;;;14.45;9.68;;;;;;;12.30;52.23;96209.09;5093831;28;20355;-65
2022/02/21 09:05:25;;;;;;;15.27;8.25;;;;;;;12.47;50.99;96200.38;5093743;28;20039;-65
2022/02/21 09:07:51;;;;;;;18.67;9.20;;;;;;;12.61;50.18;96199.66;5093664;28;20468;-66
2022/02/21 09:10:16;;;;;;;12.98;8.32;;;;;;;12.79;49.69;96197.00;5093669;28;20054;-65
2022/02/21 09:12:42;;;;;;;18.35;9.00;;;;;;;12.82;49.41;96196.84;5093487;28;20059;-64
2022/02/21 09:15:08;;;;;;;16.25;8.60;;;;;;;12.79;50.31;96191.75;5093559;28;20533;-64
2022/02/21 09:17:34;;;;;;;16.55;8.95;;;;;;;12.78;50.13;96190.06;5093504;28;20024;-64
2022/02/21 09:19:59;;;;;;;18.92;9.75;;;;;;;12.86;49.44;96180.00;5093217;28;20070;-65
2022/02/21 09:22:25;;;;;;;20.38;10.30;;;;;;;12.90;49.71;96183.31;5093372;28;20025;-66
2022/02/21 09:24:51;;;;;;;19.65;9.07;;;;;;;13.09;49.14;96170.06;5093414;28;20030;-66
2022/02/21 09:27:16;;;;;;;20.45;9.27;;;;;;;13.14;48.64;96177.69;5093346;28;20043;-65
2022/02/21 09:29:43;;;;;;;15.52;8.10;;;;;;;13.27;48.62;96170.81;5093389;28;20047;-65
2022/02/21 09:32:09;;;;;;;15.57;8.15;;;;;;;13.19;49.35;96164.31;5093357;28;20024;-65
2022/02/21 09:34:35;;;;;;;24.30;8.65;;;;;;;13.16;48.41;96160.06;5093463;28;20468;-65
2022/02/21 09:37:03;;;;;;;15.00;8.05;;;;;;;13.23;48.41;96153.56;5093314;28;20024;-66
2022/02/21 09:39:29;;;;;;;14.65;7.38;;;;;;;13.45;48.27;96151.53;5093247;28;20099;-64
2022/02/21 09:41:55;;;;;;;16.92;8.93;;;;;;;13.64;48.87;96146.09;5093201;28;20103;-65
2022/02/21 09:44:21;;;;;;;15.00;7.20;;;;;;;13.60;47.92;96148.03;5093128;28;20116;-64
2022/02/21 09:46:49;;;;;;;11.18;7.53;;;;;;;13.67;48.45;96145.06;5093200;28;20031;-63
2022/02/21 09:49:19;;;;;;;13.07;6.93;;;;;;;13.74;46.42;96139.38;5093070;28;20020;-64
2022/02/21 09:51:45;;;;;;;15.02;8.02;;;;;;;13.82;46.01;96128.41;5092958;28;20081;-65
2022/02/21 09:54:12;;;;;;;18.15;8.13;;;;;;;14.12;46.50;96129.38;5093239;28;20032;-64
2022/02/21 09:56:38;;;;;;;12.63;7.65;;;;;;;14.50;47.32;96126.22;5093033;28;20521;-66
2022/02/21 09:59:04;;;;;;;14.85;7.70;;;;;;;14.84;45.57;96118.06;5092998;28;20020;-65
2022/02/21 10:01:29;;;;;;;15.88;7.53;;;;;;;15.00;44.10;96120.59;5092965;28;20104;-65
2022/02/21 10:03:57;;;;;;;14.80;8.48;;;;;;;14.99;43.46;96116.25;5093003;28;20493;-64
2022/02/21 10:06:28;;;;;;;13.05;8.07;;;;;;;15.10;43.03;96107.69;5092950;28;20028;-64
2022/02/21 10:09:03;;;;;;;16.40;8.18;;;;;;;15.25;44.75;96115.56;5096273;28;20032;-66
2022/02/21 10:11:37;;;;;;;16.60;8.38;;;;;;;15.27;46.43;96113.69;5097068;28;20170;-64
2022/02/21 10:14:05;;;;;;;15.77;8.65;;;;;;;15.34;44.84;96107.06;5096936;28;20059;-65
2022/02/21 10:16:48;;;;;;;14.90;7.68;;;;;;;15.06;44.88;96100.06;5096887;28;20035;-66
2022/02/21 10:19:23;;;;;;;15.02;8.48;;;;;;;15.18;45.83;96096.69;5096759;28;20048;-64
2022/02/21 10:22:01;;;;;;;11.90;7.13;;;;;;;15.26;44.97;96086.47;5096772;28;20385;-64
2022/02/21 10:24:36;;;;;;;14.40;7.75;;;;;;;15.21;45.69;96085.09;5096804;28;20501;-65
2022/02/21 10:27:21;;;;;;;15.10;7.45;;;;;;;15.34;45.13;96075.44;5096699;28;20020;-65
2022/02/21 10:30:01;;;;;;;17.35;7.65;;;;;;;15.27;45.12;96068.91;5096662;28;20028;-63
2022/02/21 10:32:29;;;;;;;15.80;8.43;;;;;;;15.21;45.16;96066.66;5096588;28;20489;-65
2022/02/21 10:35:08;;;;;;;18.13;9.45;;;;;;;15.25;45.09;96057.59;5096583;28;20016;-63
2022/02/21 10:37:41;;;;;;;17.02;10.57;;;;;;;15.21;45.56;96045.56;5096525;28;20024;-65
2022/02/21 10:40:12;;;;;;;22.05;9.13;;;;;;;15.34;45.70;96042.97;5096596;28;20462;-65
2022/02/21 10:42:39;;;;;;;15.15;7.68;;;;;;;15.19;45.68;96037.78;5096683;28;20462;-65
2022/02/21 10:45:11;;;;;;;16.85;8.70;;;;;;;15.18;45.88;96028.19;5096439;28;20044;-64
2022/02/21 10:47:36;;;;;;;17.15;8.95;;;;;;;15.29;44.97;96019.56;5096383;28;20028;-63
2022/02/21 10:50:04;;;;;;;14.52;7.70;;;;;;;15.06;45.76;96018.44;5096388;28;20073;-65
2022/02/21 10:52:35;;;;;;;13.85;7.63;;;;;;;14.98;44.60;96003.13;5096069;28;20037;-64
2022/02/21 10:55:01;;;;;;;16.42;7.45;;;;;;;14.80;45.98;95999.88;5096201;28;20028;-64
2022/02/21 10:57:28;;;;;;;14.93;8.93;;;;;;;14.71;47.18;95993.38;5096128;28;20474;-64
2022/02/21 10:59:57;;;;;;;14.68;7.75;;;;;;;14.74;45.84;95986.13;5096039;28;20404;-64
2022/02/21 11:02:24;;;;;;;15.55;7.10;;;;;;;14.76;46.99;95981.63;5095979;28;20474;-65
2022/02/21 11:04:49;;;;;;;15.10;7.10;;;;;;;14.85;46.87;95980.22;5095968;28;20057;-66
2022/02/21 11:07:15;;;;;;;10.27;6.80;;;;;;;14.96;46.88;95970.78;5095879;28;20045;-64
2022/02/21 11:09:42;;;;;;;13.00;7.45;;;;;;;15.07;45.79;95970.06;5096030;28;20537;-64
2022/02/21 11:12:09;;;;;;;8.52;6.20;;;;;;;15.05;45.81;95957.00;5096009;28;20478;-65
2022/02/21 11:14:36;;;;;;;10.50;6.70;;;;;;;15.08;45.59;95961.25;5095840;28;20047;-65
2022/02/21 11:17:04;;;;;;;17.58;6.60;;;;;;;15.09;45.82;95952.38;5095718;28;20028;-64
2022/02/21 11:19:30;;;;;;;11.00;5.88;;;;;;;15.00;46.36;95951.22;5094141;28;20490;-64
2022/02/21 11:21:56;;;;;;;12.05;6.63;;;;;;;15.04;45.44;95944.78;5095766;28;20012;-65
2022/02/21 11:24:27;;;;;;;10.88;6.90;;;;;;;15.08;46.50;95946.28;5095752;28;20024;-64
2022/02/21 11:27:05;;;;;;;11.13;6.20;;;;;;;15.02;45.49;95936.16;5095649;28;20020;-65
2022/02/21 11:30:15;;;;;;;10.50;6.35;;;;;;;15.08;45.49;95937.53;5095589;28;20492;-65
2022/02/21 11:33:10;;;;;;;10.57;6.47;;;;;;;15.15;45.94;95933.56;5092590;28;20040;-65